Trenton, Indiana
Current Conditions -  °F | °C
As of 5:53 AM on Wednesday 22 Oct 2014 (Local Time) from KMIE Reporting Station
Overcast Overcast  
Wind Chill:   Ceiling: 2400
Heat Index:   Visibility: 10mi
Dew Point:   Wind: 6mph
Humidity: 82%   Direction: 10°N
Pressure: 30.26"   Gusts: NA
Location:  40.4568°N, 85.3505°W
Report Text: KMIE 220953Z 01005KT 10SM OVC024 06/03 A3026 RMK AO2 SLP248 T00560028
Loading
Personal Weather Stations






























Interactive Weather Map
Tropical Storm Tracking
New forecast layout! Learn more

10-Day Weather Forecast

Advertisements
Track Severe Weather on mobile